XBFGP MMPC-MMPA
Flight info
| Callsign | XBFGP |
|---|---|
| Flight time | 0h 18m |
| Altitude | 13500 |
| Route | MMTO DCT MMJC |
| Aircraft | TBM9/L-V/N |
Departure
| Time | 2026-05-05 05:33 |
|---|---|
| Airport | Engineer Juan Guillermo Villasana National Airport (MMPC) |
Arrival
| Time | 2026-05-05 05:51 |
|---|---|
| Airport | El Tajín National Airport (MMPA) |
| Time | Latitude | Longitude | Altitude | Speed | Heading |
|---|---|---|---|---|---|
| 2026-05-05 05:30 | 20.07571 | -98.78320 | 7604 ft | 0 kts | 305° |
| 2026-05-05 05:32 | 20.07576 | -98.78329 | 7604 ft | 12 kts | 303° |
| 2026-05-05 05:32 | 20.07811 | -98.78193 | 7598 ft | 72 kts | 33° |
| 2026-05-05 05:32 | 20.08361 | -98.77807 | 7601 ft | 109 kts | 32° |
| 2026-05-05 05:32 | 20.09050 | -98.77331 | 7715 ft | 138 kts | 37° |
| 2026-05-05 05:33 | 20.09441 | -98.76412 | 8254 ft | 146 kts | 97° |
| 2026-05-05 05:33 | 20.09156 | -98.75366 | 8868 ft | 151 kts | 102° |
| 2026-05-05 05:33 | 20.09125 | -98.74229 | 9213 ft | 158 kts | 83° |
| 2026-05-05 05:33 | 20.09479 | -98.73096 | 9839 ft | 164 kts | 72° |
| 2026-05-05 05:34 | 20.09933 | -98.71956 | 10412 ft | 170 kts | 70° |
| 2026-05-05 05:34 | 20.10409 | -98.70783 | 10989 ft | 175 kts | 70° |
| 2026-05-05 05:34 | 20.10895 | -98.69581 | 11578 ft | 178 kts | 69° |
| 2026-05-05 05:34 | 20.11387 | -98.68368 | 12167 ft | 183 kts | 67° |
| 2026-05-05 05:35 | 20.11894 | -98.67114 | 12770 ft | 187 kts | 66° |
| 2026-05-05 05:35 | 20.12414 | -98.65826 | 13384 ft | 191 kts | 65° |
| 2026-05-05 05:35 | 20.12974 | -98.64436 | 13544 ft | 220 kts | 65° |
| 2026-05-05 05:35 | 20.13610 | -98.62838 | 13556 ft | 247 kts | 66° |
| 2026-05-05 05:36 | 20.14311 | -98.61080 | 13556 ft | 266 kts | 66° |
| 2026-05-05 05:36 | 20.15048 | -98.59243 | 13553 ft | 278 kts | 66° |
| 2026-05-05 05:36 | 20.15820 | -98.57323 | 13553 ft | 286 kts | 66° |
| 2026-05-05 05:36 | 20.16611 | -98.55362 | 13551 ft | 290 kts | 66° |
| 2026-05-05 05:37 | 20.17412 | -98.53374 | 13551 ft | 293 kts | 66° |
| 2026-05-05 05:37 | 20.18219 | -98.51371 | 13545 ft | 295 kts | 66° |
| 2026-05-05 05:37 | 20.19031 | -98.49355 | 13547 ft | 297 kts | 66° |
| 2026-05-05 05:37 | 20.19849 | -98.47325 | 13543 ft | 298 kts | 66° |
| 2026-05-05 05:38 | 20.20665 | -98.45296 | 13539 ft | 298 kts | 66° |
| 2026-05-05 05:38 | 20.21474 | -98.43283 | 13537 ft | 299 kts | 66° |
| 2026-05-05 05:38 | 20.22292 | -98.41248 | 13535 ft | 299 kts | 66° |
| 2026-05-05 05:38 | 20.23110 | -98.39213 | 13527 ft | 299 kts | 66° |
| 2026-05-05 05:39 | 20.23929 | -98.37174 | 13529 ft | 299 kts | 66° |
| 2026-05-05 05:39 | 20.24749 | -98.35129 | 13524 ft | 299 kts | 66° |
| 2026-05-05 05:39 | 20.25566 | -98.33092 | 13522 ft | 299 kts | 66° |
| 2026-05-05 05:39 | 20.26386 | -98.31049 | 13516 ft | 299 kts | 66° |
| 2026-05-05 05:40 | 20.27194 | -98.29035 | 13503 ft | 299 kts | 66° |
| 2026-05-05 05:40 | 20.28010 | -98.27001 | 13503 ft | 299 kts | 66° |
| 2026-05-05 05:40 | 20.28831 | -98.24954 | 13499 ft | 299 kts | 66° |
| 2026-05-05 05:40 | 20.29646 | -98.22914 | 13497 ft | 299 kts | 66° |
| 2026-05-05 05:41 | 20.30461 | -98.20877 | 13496 ft | 299 kts | 66° |
| 2026-05-05 05:41 | 20.31276 | -98.18845 | 13495 ft | 297 kts | 66° |
| 2026-05-05 05:41 | 20.32091 | -98.16812 | 13492 ft | 298 kts | 66° |
| 2026-05-05 05:41 | 20.32899 | -98.14781 | 13491 ft | 298 kts | 66° |
| 2026-05-05 05:42 | 20.33700 | -98.12777 | 13482 ft | 298 kts | 66° |
| 2026-05-05 05:42 | 20.34515 | -98.10744 | 13481 ft | 298 kts | 66° |
| 2026-05-05 05:42 | 20.35327 | -98.08708 | 13471 ft | 298 kts | 66° |
| 2026-05-05 05:42 | 20.36139 | -98.06667 | 13469 ft | 299 kts | 66° |
| 2026-05-05 05:43 | 20.36954 | -98.04628 | 13462 ft | 299 kts | 66° |
| 2026-05-05 05:43 | 20.37768 | -98.02592 | 13461 ft | 298 kts | 66° |
| 2026-05-05 05:43 | 20.38580 | -98.00556 | 13459 ft | 298 kts | 66° |
| 2026-05-05 05:43 | 20.39378 | -97.98551 | 13456 ft | 298 kts | 66° |
| 2026-05-05 05:44 | 20.40188 | -97.96518 | 13455 ft | 298 kts | 67° |
| 2026-05-05 05:44 | 20.40998 | -97.94487 | 13452 ft | 298 kts | 67° |
| 2026-05-05 05:44 | 20.41808 | -97.92453 | 13450 ft | 297 kts | 67° |
| 2026-05-05 05:44 | 20.42616 | -97.90424 | 13445 ft | 297 kts | 67° |
| 2026-05-05 05:45 | 20.43422 | -97.88395 | 13443 ft | 297 kts | 67° |
| 2026-05-05 05:45 | 20.44227 | -97.86370 | 13439 ft | 297 kts | 67° |
| 2026-05-05 05:45 | 20.45033 | -97.84345 | 13436 ft | 296 kts | 67° |
| 2026-05-05 05:45 | 20.45837 | -97.82320 | 13437 ft | 296 kts | 67° |
| 2026-05-05 05:46 | 20.46641 | -97.80297 | 13432 ft | 296 kts | 67° |
| 2026-05-05 05:46 | 20.47445 | -97.78271 | 13434 ft | 296 kts | 67° |
| 2026-05-05 05:46 | 20.48248 | -97.76249 | 13428 ft | 296 kts | 67° |
| 2026-05-05 05:46 | 20.49051 | -97.74223 | 13427 ft | 296 kts | 67° |
| 2026-05-05 05:47 | 20.49855 | -97.72196 | 13424 ft | 296 kts | 67° |
| 2026-05-05 05:47 | 20.50660 | -97.70162 | 13184 ft | 303 kts | 68° |
| 2026-05-05 05:47 | 20.51486 | -97.68045 | 12695 ft | 313 kts | 68° |
| 2026-05-05 05:47 | 20.52328 | -97.65910 | 12216 ft | 318 kts | 68° |
| 2026-05-05 05:48 | 20.53200 | -97.63733 | 11694 ft | 320 kts | 68° |
| 2026-05-05 05:48 | 20.54024 | -97.61644 | 11105 ft | 289 kts | 69° |
| 2026-05-05 05:48 | 20.54785 | -97.59754 | 10448 ft | 267 kts | 68° |
| 2026-05-05 05:48 | 20.55505 | -97.57980 | 9760 ft | 254 kts | 69° |
| 2026-05-05 05:49 | 20.56161 | -97.56309 | 9023 ft | 211 kts | 69° |
| 2026-05-05 05:49 | 20.56750 | -97.55192 | 7988 ft | 157 kts | 49° |
| 2026-05-05 05:49 | 20.57404 | -97.54332 | 7184 ft | 136 kts | 60° |
| 2026-05-05 05:49 | 20.57936 | -97.53488 | 6568 ft | 150 kts | 62° |
| 2026-05-05 05:50 | 20.58518 | -97.52500 | 5786 ft | 170 kts | 62° |
| 2026-05-05 05:50 | 20.59203 | -97.51243 | 4583 ft | 210 kts | 64° |
| 2026-05-05 05:50 | 20.59730 | -97.49807 | 3030 ft | 211 kts | 75° |
| 2026-05-05 05:50 | 20.60095 | -97.48271 | 1251 ft | 180 kts | 86° |
| 2026-05-05 05:51 | 20.60195 | -97.47161 | 688 ft | 156 kts | 85° |
| 2026-05-05 05:51 | 20.60184 | -97.46250 | 486 ft | 46 kts | 135° |
| 2026-05-05 05:51 | 20.60105 | -97.46194 | 485 ft | 8 kts | 141° |
| 2026-05-05 05:51 | 20.60032 | -97.46249 | 487 ft | 23 kts | 211° |
| 2026-05-05 05:52 | 20.60004 | -97.46255 | 488 ft | 0 kts | 170° |